Sooke, Canada
Current Conditions -  °F | °C
As of 6:00 AM on Thursday 30 Oct 2014 (Local Time) from CYWH Reporting Station
Overcast Overcast  
Wind Chill: 52°   Ceiling: 8000
Heat Index: 52°   Visibility: 15mi
Dew Point: 46°   Wind: 6mph
Humidity: 82%   Direction: 40°NE
Pressure: 29.87"   Gusts: NA
Location:  48.38°N, 123.73°W
Report Text: CYWH 301300Z 04005KT 15SM OVC080 11/08 A2987 RMK AC8 SLP116
Loading
Personal Weather Stations






























Interactive Weather Map
Tropical Storm Tracking
New forecast layout! Learn more

10-Day Weather Forecast

Advertisements
Track Severe Weather on mobile